Latest Weather Observations for Omeo

IDV60801

Issued at 11:05 am EDT Wednesday 22 October 2014 (issued every 30 minutes, with the page automatically refreshed every 10 minutes)

About weather observations | Map of weather stations | Latest weather observations for VIC | Other Formats
Station Details ID: 083090 Name: OMEO Lat: -37.10 Lon: 147.60 Height: 689.8 m
Data from the previous 72 hours. | See also: Recent months at Omeo
Date/Time
EDT
Temp
°C
App
Temp
°C
Dew
Point
Rel
Hum
%
Delta-T
°C
Wind Press
QNH
hPa
Press
MSL
hPa
Rain
since 9 am
mm
Dir
 
Spd
km/h
Gust
km/h
Spd
kts
Gust
kts
22/11:00am 19.0 16.2 12.5 66 3.7 NNW 19 22 10 12 1023.1 1022.5 0.0
22/10:30am 17.2 14.2 12.1 72 2.9 N 19 26 10 14 1023.6 1023.0 0.0
22/10:00am 15.9 12.8 12.1 78 2.1 N 20 28 11 15 1023.9 1023.3 0.0
22/09:30am 14.5 11.2 11.6 83 1.6 N 20 28 11 15 1024.0 1023.4 0.0
22/09:00am 12.3 10.4 11.7 96 0.3 N 13 19 7 10 1024.1 1023.5 0.0
22/08:30am 10.2 7.8 10.0 99 0.1 N 13 19 7 10 1024.4 1023.8 0.0
22/08:00am 7.8 5.2 7.7 99 0.0 N 11 17 6 9 1024.6 1024.0 0.0
22/07:30am 6.4 4.8 6.3 99 0.0 NNW 4 9 2 5 1024.5 1023.9 0.0
22/07:00am 5.7 4.3 5.4 98 0.1 WNW 2 7 1 4 1024.4 1023.8 0.0
22/06:30am 5.5 4.4 5.2 98 0.1 CALM 0 6 0 3 1024.1 1023.5 0.0
22/06:00am 6.1 3.4 5.8 98 0.1 WNW 9 11 5 6 1023.8 1023.2 0.0
22/05:30am 6.8 4.7 6.5 98 0.1 NW 7 11 4 6 1023.5 1022.9 0.0
22/05:00am 6.9 4.8 6.6 98 0.1 WNW 7 11 4 6 1023.5 1022.9 0.0
22/04:30am 7.5 5.5 7.2 98 0.1 NW 7 9 4 5 1023.7 1023.1 0.0
22/04:00am 7.8 6.1 7.5 98 0.1 WNW 6 7 3 4 1023.9 1023.3 0.0
22/03:30am 7.8 5.9 7.4 97 0.2 NW 7 9 4 5 1024.3 1023.7 0.0
22/03:00am 8.2 6.9 7.8 97 0.2 NNW 4 7 2 4 1024.6 1024.0 0.0
22/02:30am 8.3 6.7 7.9 97 0.2 NW 6 9 3 5 1024.9 1024.3 0.0
22/02:00am 8.7 7.9 8.1 96 0.3 N 2 7 1 4 1025.1 1024.5 0.0
22/01:30am 9.1 8.8 8.5 96 0.3 CALM 0 0 0 0 1025.4 1024.8 0.0
22/01:00am 9.0 8.6 8.2 95 0.4 CALM 0 0 0 0 1025.9 1025.3 0.0
22/12:30am 8.8 8.3 8.0 95 0.4 CALM 0 0 0 0 1026.2 1025.6 0.0
22/12:00am 9.1 8.7 8.2 94 0.4 WSW 0 0 0 0 1026.4 1025.8 0.0
 
Date/Time
EDT
Temp
°C
App
Temp
°C
Dew
Point
Rel
Hum
%
Delta-T
°C
Wind Press
QNH
hPa
Press
MSL
hPa
Rain
since 9 am
mm
Dir
 
Spd
km/h
Gust
km/h
Spd
kts
Gust
kts
21/11:30pm 10.0 9.8 8.9 93 0.6 CALM 0 0 0 0 1026.4 1025.8 0.0
21/11:00pm 10.0 9.7 8.6 91 0.7 CALM 0 0 0 0 1026.6 1026.0 0.0
21/10:30pm 10.9 9.7 9.5 91 0.7 SSE 6 7 3 4 1026.6 1026.0 0.0
21/10:00pm 11.5 11.1 9.8 89 0.9 SSE 2 7 1 4 1026.7 1026.2 0.0
21/09:30pm 12.5 11.3 10.2 86 1.2 SE 7 7 4 4 1026.6 1026.0 0.0
21/09:00pm 13.3 13.3 11.0 86 1.2 SSE 2 7 1 4 1026.3 1025.7 0.0
21/08:30pm 13.7 13.9 10.7 82 1.6 CALM 0 0 0 0 1026.2 1025.6 0.0
21/08:00pm 14.7 14.9 10.7 77 2.2 CALM 0 6 0 3 1026.0 1025.4 0.0
21/07:30pm 15.9 14.9 10.9 72 2.8 SE 7 11 4 6 1025.7 1025.2 0.0
21/07:00pm 17.9 15.5 11.5 66 3.6 SSE 15 22 8 12 1025.4 1024.8 0.0
21/06:30pm 19.2 17.0 12.0 63 4.1 SE 15 20 8 11 1025.3 1024.7 0.0
21/06:00pm 20.2 17.6 11.9 59 4.8 SSE 17 24 9 13 1025.2 1024.6 0.0
21/05:30pm 21.0 18.8 12.2 57 5.1 SE 15 22 8 12 1025.2 1024.6 0.0
21/05:00pm 21.6 19.3 11.9 54 5.6 SE 15 22 8 12 1025.3 1024.7 0.0
21/04:30pm 22.0 20.0 11.4 51 6.1 SE 13 19 7 10 1025.3 1024.7 0.0
21/04:00pm 22.0 19.5 12.3 54 5.6 ESE 17 26 9 14 1025.4 1024.8 0.0
21/03:30pm 22.2 20.7 13.0 56 5.4 SE 13 22 7 12 1025.6 1025.1 0.0
21/03:00pm 21.7 19.5 12.0 54 5.6 SE 15 22 8 12 1026.0 1025.4 0.0
21/02:30pm 21.8 20.4 12.1 54 5.6 SE 11 17 6 9 1026.4 1025.8 0.0
21/02:00pm 21.3 20.9 13.0 59 4.9 NE 7 13 4 7 1026.8 1026.3 0.0
21/01:30pm 21.5 20.7 10.9 51 6.0 S 6 11 3 6 1027.1 1026.6 0.0
21/01:00pm 20.1 18.4 11.1 56 5.1 N 11 15 6 8 1027.6 1027.0 0.0
21/12:30pm 19.0 16.9 11.3 61 4.4 N 13 19 7 10 1027.9 1027.3 0.0
21/12:00pm 17.8 15.8 11.6 67 3.5 N 13 22 7 12 1028.3 1027.8 0.0
21/11:30am 15.7 12.8 9.6 67 3.3 N 15 20 8 11 1028.7 1028.2 0.0
21/11:00am 14.0 11.5 9.8 76 2.2 NNW 13 19 7 10 1029.1 1028.5 0.0
21/10:30am 12.5 9.8 8.8 78 1.9 N 13 19 7 10 1029.3 1028.8 0.0
21/10:00am 10.8 7.1 8.0 83 1.4 N 17 20 9 11 1029.5 1029.0 0.0
21/09:30am 9.6 5.7 7.0 84 1.3 N 17 22 9 12 1029.5 1029.0 0.0
21/09:00am 8.5 4.9 6.6 88 0.9 N 15 22 8 12 1029.5 1029.0 0.0
21/08:30am 7.7 4.0 6.2 90 0.7 N 15 20 8 11 1029.4 1028.9 0.0
21/08:00am 7.4 3.6 6.0 91 0.7 N 15 20 8 11 1029.3 1028.8 0.0
21/07:30am 7.3 3.9 6.1 92 0.6 N 13 20 7 11 1029.0 1028.4 0.0
21/07:00am 7.2 4.6 6.1 93 0.5 NNW 9 13 5 7 1028.7 1028.2 0.0
21/06:30am 7.3 4.7 6.1 92 0.6 NNW 9 11 5 6 1028.6 1028.1 0.0
21/06:00am 7.6 5.4 6.1 90 0.7 NW 7 9 4 5 1028.3 1027.8 0.0
21/05:30am 7.8 5.6 6.4 91 0.7 NNW 7 11 4 6 1028.2 1027.7 0.0
21/05:00am 7.7 6.1 6.3 91 0.7 N 4 7 2 4 1028.3 1027.8 0.0
21/04:30am 7.7 6.9 6.3 91 0.7 CALM 0 0 0 0 1028.2 1027.7 0.0
21/04:00am 7.5 6.6 6.1 91 0.7 CALM 0 0 0 0 1028.4 1027.9 0.0
21/03:30am 7.5 5.8 6.1 91 0.7 ENE 4 6 2 3 1028.8 1028.3 0.0
21/03:00am 7.7 5.7 6.3 91 0.7 NNW 6 7 3 4 1029.1 1028.5 0.0
21/02:30am 7.7 5.7 6.2 90 0.7 SSE 6 9 3 5 1029.1 1028.5 0.0
21/02:00am 7.7 5.6 6.0 89 0.8 SSE 6 9 3 5 1029.4 1028.9 0.0
21/01:30am 7.8 6.1 6.1 89 0.8 S 4 7 2 4 1029.8 1029.3 0.0
21/01:00am 7.9 6.6 6.2 89 0.8 SSE 2 7 1 4 1030.1 1029.6 0.0
21/12:30am 8.0 5.8 6.1 88 0.9 SE 7 9 4 5 1030.2 1029.7 0.0
21/12:00am 8.1 5.5 6.2 88 0.9 SE 9 13 5 7 1030.5 1029.9 0.0
 
Date/Time
EDT
Temp
°C
App
Temp
°C
Dew
Point
Rel
Hum
%
Delta-T
°C
Wind Press
QNH
hPa
Press
MSL
hPa
Rain
since 9 am
mm
Dir
 
Spd
km/h
Gust
km/h
Spd
kts
Gust
kts
20/11:30pm 8.2 5.6 6.3 88 0.9 SE 9 13 5 7 1030.5 1029.9 0.0
20/11:00pm 8.2 5.6 6.3 88 0.9 SE 9 13 5 7 1030.3 1029.8 0.0
20/10:30pm 8.3 5.8 6.4 88 0.9 SSE 9 13 5 7 1030.5 1029.9 0.0
20/10:00pm 8.2 5.3 6.5 89 0.8 SSE 11 15 6 8 1030.5 1029.9 0.0
20/09:30pm 8.1 4.8 6.2 88 0.9 SSE 13 20 7 11 1030.5 1029.9 0.0
20/09:00pm 7.8 4.8 6.1 89 0.8 S 11 17 6 9 1030.3 1029.8 0.0
20/08:30pm 8.1 4.7 6.1 87 0.9 SSE 13 19 7 10 1030.0 1029.5 0.0
20/08:00pm 8.6 4.9 6.2 85 1.1 SSE 15 22 8 12 1029.7 1029.2 0.0
20/07:30pm 9.3 4.9 6.4 82 1.4 SE 19 28 10 15 1029.4 1028.9 0.0
20/07:00pm 10.9 6.6 7.0 77 1.9 SE 19 28 10 15 1029.0 1028.4 0.0
20/06:30pm 12.6 8.7 7.3 70 2.7 SE 17 28 9 15 1028.6 1028.1 0.0
20/06:00pm 14.2 9.9 7.0 62 3.6 SE 19 26 10 14 1028.5 1028.0 0.0
20/05:30pm 14.5 10.0 6.1 57 4.2 SE 19 30 10 16 1028.5 1028.0 0.0
20/05:00pm 15.0 10.9 6.3 56 4.3 SSE 17 24 9 13 1028.4 1027.9 0.0
20/04:30pm 14.6 10.5 6.2 57 4.2 SE 17 28 9 15 1028.4 1027.9 0.0
20/04:00pm 15.1 11.3 7.6 61 3.8 SE 17 26 9 14 1028.4 1027.9 0.0
20/03:30pm 14.7 10.9 7.5 62 3.7 SE 17 24 9 13 1028.6 1028.1 0.0
20/03:00pm 14.5 10.6 7.3 62 3.6 SE 17 26 9 14 1028.8 1028.3 0.0
20/02:30pm 14.0 9.7 7.1 63 3.5 SE 19 28 10 15 1029.2 1028.6 0.0
20/02:00pm 13.5 9.8 6.4 62 3.5 SE 15 22 8 12 1029.6 1029.1 0.0
20/01:30pm 13.7 10.3 7.7 67 3.1 SE 15 24 8 13 1029.9 1029.4 0.0
20/01:00pm 12.5 8.5 6.8 68 2.8 SE 17 28 9 15 1030.0 1029.5 0.0
20/12:30pm 12.1 7.9 5.9 66 3.0 SSE 17 26 9 14 1030.5 1029.9 0.0
20/12:00pm 11.9 8.7 6.8 71 2.5 SSE 13 22 7 12 1030.9 1030.4 0.0
20/11:30am 10.0 6.8 6.9 81 1.5 ESE 13 20 7 11 1031.4 1030.9 0.0
20/11:00am 9.3 5.6 6.4 82 1.4 SE 15 20 8 11 1031.5 1031.0 0.0
20/10:30am 9.1 5.1 6.5 84 1.3 SE 17 26 9 14 1031.4 1030.9 0.0
20/10:00am 8.2 3.9 5.3 82 1.3 SSE 17 24 9 13 1031.2 1030.7 0.0
20/09:30am 8.1 4.3 5.6 84 1.2 SSE 15 22 8 12 1030.9 1030.4 0.0
20/09:00am 7.9 4.3 5.2 83 1.2 SSE 13 22 7 12 1030.6 1030.1 0.2
20/08:30am 7.5 3.6 5.5 87 0.9 SSE 15 24 8 13 1030.3 1029.8 0.2
20/08:00am 7.3 4.0 6.2 93 0.5 SSE 13 22 7 12 1030.1 1029.6 0.2
20/07:30am 6.6 3.6 6.0 96 0.3 S 11 17 6 9 1029.7 1029.2 0.2
20/07:00am 6.2 2.4 5.6 96 0.3 SE 15 22 8 12 1029.5 1029.0 0.2
20/06:30am 6.1 2.2 5.5 96 0.3 SE 15 26 8 14 1029.3 1028.8 0.2
20/06:00am 6.5 2.0 5.9 96 0.3 SE 19 30 10 16 1029.0 1028.4 0.2
20/05:30am 7.1 3.4 6.5 96 0.3 SE 15 24 8 13 1028.7 1028.2 0.2
20/05:00am 7.3 3.3 6.6 95 0.3 SE 17 26 9 14 1028.4 1027.9 0.2
20/04:30am 7.6 3.7 6.9 95 0.3 SE 17 30 9 16 1028.3 1027.8 0.2
20/04:00am 8.1 4.2 7.2 94 0.4 SE 17 26 9 14 1028.3 1027.8 0.0
20/03:30am 9.0 6.0 7.9 93 0.5 SE 13 22 7 12 1028.2 1027.7 0.0
20/03:00am 9.6 7.1 8.2 91 0.7 SSE 11 19 6 10 1028.0 1027.5 0.0
20/02:30am 9.9 8.2 8.5 91 0.7 S 7 13 4 7 1027.7 1027.1 0.0
20/02:00am 10.1 7.3 8.7 91 0.7 SSE 13 20 7 11 1027.5 1026.9 0.0
20/01:30am 10.7 7.4 9.6 93 0.6 SE 17 22 9 12 1027.2 1026.7 0.0
20/01:00am 10.8 7.6 9.9 94 0.5 SE 17 24 9 13 1026.9 1026.4 0.0
20/12:30am 11.1 7.4 10.2 94 0.5 SSE 20 32 11 17 1026.8 1026.3 0.0
20/12:00am 11.1 8.3 10.0 93 0.6 SSE 15 28 8 15 1026.5 1025.9 0.0
 
Date/Time
EDT
Temp
°C
App
Temp
°C
Dew
Point
Rel
Hum
%
Delta-T
°C
Wind Press
QNH
hPa
Press
MSL
hPa
Rain
since 9 am
mm
Dir
 
Spd
km/h
Gust
km/h
Spd
kts
Gust
kts
19/11:30pm 10.9 8.0 9.5 91 0.7 S 15 30 8 16 1026.1 1025.5 0.0
19/11:00pm 11.8 7.8 9.0 83 1.4 SSE 20 32 11 17 1025.5 1025.0 0.0
19/10:30pm 13.1 11.2 6.9 66 3.1 SSW 6 9 3 5 1024.9 1024.3 0.0
19/10:00pm 14.7 12.3 7.0 60 3.9 WSW 9 13 5 7 1024.7 1024.1 0.0
19/09:30pm 16.0 13.9 6.7 54 4.7 NNE 7 11 4 6 1024.4 1023.8 0.0
19/09:00pm 15.9 13.7 6.3 53 4.8 NE 7 9 4 5 1023.9 1023.3 0.0
19/08:30pm 16.4 13.5 6.5 52 5.0 N 11 19 6 10 1023.9 1023.3 0.0
19/08:00pm 16.4 14.4 7.1 54 4.8 N 7 11 4 6 1023.9 1023.3 0.0
19/07:30pm 17.1 15.8 7.5 53 5.0 ENE 4 11 2 6 1023.9 1023.3 0.0
19/07:00pm 18.0 15.3 7.4 50 5.5 N 11 15 6 8 1023.7 1023.1 0.0
19/06:30pm 18.2 15.2 7.9 51 5.4 N 13 19 7 10 1023.5 1022.9 0.0
19/06:00pm 18.9 16.5 8.6 51 5.5 N 11 17 6 9 1023.1 1022.5 0.0
19/05:30pm 19.7 16.3 9.0 50 5.8 N 17 20 9 11 1022.6 1022.0 0.0
19/05:00pm 18.0 15.3 9.1 56 4.8 N 13 17 7 9 1022.6 1022.0 0.0
19/04:30pm 18.4 14.7 7.8 50 5.6 N 17 22 9 12 1022.8 1022.1 0.0
19/04:00pm 18.6 14.6 8.3 51 5.5 N 19 26 10 14 1022.9 1022.2 0.0
19/03:30pm 19.0 14.0 8.1 49 5.8 N 24 33 13 18 1023.0 1022.4 0.0
19/03:00pm 19.2 14.4 8.8 51 5.6 N 24 35 13 19 1023.3 1022.7 0.0
19/02:30pm 18.7 14.8 8.7 52 5.4 N 19 28 10 15 1023.8 1023.2 0.0
19/02:00pm 18.4 13.0 7.8 50 5.6 N 26 35 14 19 1024.0 1023.4 0.0
19/01:30pm 18.8 14.1 7.9 49 5.8 N 22 32 12 17 1024.6 1024.0 0.0
19/01:00pm 18.7 14.2 8.4 51 5.5 N 22 32 12 17 1024.9 1024.3 0.0
19/12:30pm 18.6 13.4 7.4 48 5.9 N 24 37 13 20 1025.0 1024.4 0.0
19/12:00pm 18.0 14.5 8.6 54 5.0 N 17 24 9 13 1025.3 1024.7 0.0
19/11:30am 16.9 12.4 7.0 52 5.1 N 20 28 11 15 1025.6 1025.1 0.0

Other Formats:

Comma delimited format used in spreadsheet applications
http://www.bom.gov.au/fwo/IDV60801/IDV60801.94908.axf

JavaScript Object Notation format (JSON) in row-major order
http://www.bom.gov.au/fwo/IDV60801/IDV60801.94908.json